Time;durP1;ratioP1;P1;durP2;ratioP2;P2;SDS_P1;SDS_P2;PMS_P1;PMS_P2;Temp;Humidity;BMP_temperature;BMP_pressure;BME280_temperature;BME280_humidity;BME280_pressure;Samples;Min_cycle;Max_cycle;Signal;HPM_P1;HPM_P2
2023/06/08 00:01:35;;;;;;;;;;;;;;;23.79;58.72;98041.44;106018;1253;60242;-83
2023/06/08 00:04:05;;;;;;;;;;;;;;;23.78;58.68;98042.23;106029;1258;73067;-82
2023/06/08 00:06:34;;;;;;;;;;;;;;;23.78;58.71;98040.96;106079;1253;69060;-82
2023/06/08 00:09:01;;;;;;;;;;;;;;;23.78;58.75;98043.91;106189;1257;72891;-83
2023/06/08 00:11:29;;;;;;;;;;;;;;;23.78;58.79;98046.86;106200;1253;60410;-82
2023/06/08 00:13:56;;;;;;;;;;;;;;;23.78;58.60;98046.11;106022;1253;59669;-81
2023/06/08 00:16:24;;;;;;;;;;;;;;;23.78;58.70;98045.39;106178;1258;73565;-82
2023/06/08 00:18:56;;;;;;;;;;;;;;;23.78;58.70;98043.91;106216;1252;67721;-82
2023/06/08 00:21:26;;;;;;;;;;;;;;;23.78;58.74;98039.73;106246;1256;72522;-83
2023/06/08 00:23:53;;;;;;;;;;;;;;;23.77;58.68;98037.05;106095;1253;60200;-83
2023/06/08 00:26:21;;;;;;;;;;;;;;;23.77;58.60;98032.52;106085;1259;59734;-82
2023/06/08 00:28:48;;;;;;;;;;;;;;;23.77;58.56;98028.46;106073;1259;71250;-83
2023/06/08 00:31:16;;;;;;;;;;;;;;;23.77;58.62;98026.02;106292;1253;67595;-83
2023/06/08 00:33:44;;;;;;;;;;;;;;;23.77;58.64;98022.72;106081;1258;71606;-84
2023/06/08 00:36:12;;;;;;;;;;;;;;;23.77;58.63;98018.52;105852;1258;60634;-84
2023/06/08 00:38:39;;;;;;;;;;;;;;;23.76;58.59;98018.21;106173;1253;60126;-83
2023/06/08 00:41:07;;;;;;;;;;;;;;;23.76;58.59;98016.98;105973;1253;70970;-83
2023/06/08 00:43:34;;;;;;;;;;;;;;;23.76;58.60;98015.14;106010;1253;66504;-83
2023/06/08 00:46:04;;;;;;;;;;;;;;;23.76;58.67;98016.10;106093;1253;72659;-82
2023/06/08 00:48:31;;;;;;;;;;;;;;;23.76;58.66;98022.64;105953;1251;60009;-83
2023/06/08 00:51:00;;;;;;;;;;;;;;;23.75;58.63;98023.81;106153;1257;60096;-84
2023/06/08 00:53:28;;;;;;;;;;;;;;;23.76;58.59;98024.86;108479;1252;72303;-83
2023/06/08 00:55:57;;;;;;;;;;;;;;;23.76;58.51;98023.77;108897;1256;67685;-83
2023/06/08 00:58:25;;;;;;;;;;;;;;;23.76;58.55;98023.17;106799;1255;72670;-83
2023/06/08 01:00:59;;;;;;;;;;;;;;;23.77;58.51;98027.83;106139;1253;60577;-82
2023/06/08 01:03:35;;;;;;;;;;;;;;;23.77;58.50;98030.19;106058;1253;60829;-83
2023/06/08 01:06:03;;;;;;;;;;;;;;;23.78;58.54;98026.45;106118;1252;72675;-83
2023/06/08 01:08:47;;;;;;;;;;;;;;;23.78;58.54;98029.06;106043;1253;68916;-86
2023/06/08 01:11:28;;;;;;;;;;;;;;;23.78;58.41;98020.55;106050;1253;73422;-83
2023/06/08 01:14:02;;;;;;;;;;;;;;;23.78;58.41;98018.94;106060;1252;60031;-83
2023/06/08 01:16:31;;;;;;;;;;;;;;;23.78;58.43;98014.17;106104;1253;59726;-83
2023/06/08 01:18:59;;;;;;;;;;;;;;;23.78;58.38;98012.11;106008;1257;71763;-84
2023/06/08 01:21:35;;;;;;;;;;;;;;;23.77;58.28;98014.92;106197;1254;68162;-83
2023/06/08 01:24:12;;;;;;;;;;;;;;;23.77;58.40;98011.50;106267;1253;72774;-83
2023/06/08 01:26:41;;;;;;;;;;;;;;;23.77;58.27;98008.75;106159;1253;59663;-84
2023/06/08 01:29:11;;;;;;;;;;;;;;;23.77;58.41;98004.42;106041;1253;60778;-82
2023/06/08 01:31:38;;;;;;;;;;;;;;;23.77;58.33;98005.17;106105;1251;72097;-84
2023/06/08 01:34:06;;;;;;;;;;;;;;;23.77;58.49;98005.17;106241;1251;67766;-84
2023/06/08 01:36:51;;;;;;;;;;;;;;;23.76;58.41;97999.09;109021;1251;71755;-84
2023/06/08 01:39:37;;;;;;;;;;;;;;;23.76;58.34;97996.87;109082;1251;59909;-83
2023/06/08 01:42:05;;;;;;;;;;;;;;;23.76;58.40;98002.64;106742;1253;59801;-83
2023/06/08 01:44:33;;;;;;;;;;;;;;;23.77;58.34;98006.70;106704;1252;72187;-82
2023/06/08 01:47:00;;;;;;;;;;;;;;;23.77;58.36;98012.02;106401;1254;68164;-82
2023/06/08 01:49:28;;;;;;;;;;;;;;;23.79;58.34;98012.23;106217;1253;72816;-82
2023/06/08 01:51:56;;;;;;;;;;;;;;;23.78;58.34;98006.58;106100;1251;60637;-83
2023/06/08 01:54:24;;;;;;;;;;;;;;;23.79;58.36;98011.80;106152;1253;59641;-82
2023/06/08 01:56:52;;;;;;;;;;;;;;;23.79;58.39;98011.30;106176;1256;73568;-84
2023/06/08 01:59:19;;;;;;;;;;;;;;;23.78;58.29;98010.04;106110;1253;67666;-83
2023/06/08 02:01:46;;;;;;;;;;;;;;;23.78;58.37;98014.64;106066;1253;74344;-83
2023/06/08 02:04:14;;;;;;;;;;;;;;;23.78;58.31;98011.27;106120;1254;59780;-83
2023/06/08 02:06:42;;;;;;;;;;;;;;;23.78;58.29;98010.16;106246;1250;61846;-83
2023/06/08 02:09:10;;;;;;;;;;;;;;;23.78;58.31;98010.54;106962;1256;73777;-81
2023/06/08 02:11:38;;;;;;;;;;;;;;;23.77;58.27;98009.69;106421;1251;66635;-83
2023/06/08 02:14:06;;;;;;;;;;;;;;;23.77;58.21;98002.27;106106;1258;72818;-82
2023/06/08 02:16:34;;;;;;;;;;;;;;;23.77;58.34;98004.59;106122;1254;60560;-83
2023/06/08 02:19:03;;;;;;;;;;;;;;;23.76;58.33;98004.29;106156;1253;60229;-82
2023/06/08 02:21:32;;;;;;;;;;;;;;;23.76;58.19;97999.57;106087;1254;73201;-83
2023/06/08 02:23:59;;;;;;;;;;;;;;;23.76;58.24;97998.26;106120;1256;67946;-82
2023/06/08 02:26:26;;;;;;;;;;;;;;;23.76;58.27;97996.27;106044;1253;72657;-83
2023/06/08 02:28:54;;;;;;;;;;;;;;;23.76;58.21;97997.07;106098;1256;60544;-83
2023/06/08 02:31:25;;;;;;;;;;;;;;;23.75;58.17;97998.58;106201;1256;60671;-84
2023/06/08 02:33:52;;;;;;;;;;;;;;;23.75;58.20;97999.13;106172;1252;72552;-83
2023/06/08 02:36:19;;;;;;;;;;;;;;;23.75;58.24;97999.75;106201;1252;69033;-83
2023/06/08 02:38:47;;;;;;;;;;;;;;;23.75;58.29;98002.30;107017;1251;71543;-83
2023/06/08 02:41:14;;;;;;;;;;;;;;;23.74;58.24;97999.07;109628;1251;59477;-84
2023/06/08 02:43:42;;;;;;;;;;;;;;;23.75;58.24;98004.69;109717;1251;58773;-84
2023/06/08 02:46:12;;;;;;;;;;;;;;;23.75;58.22;98002.13;109575;1250;72316;-83
2023/06/08 02:48:39;;;;;;;;;;;;;;;23.77;58.18;98003.73;109718;1250;67689;-84
2023/06/08 02:51:07;;;;;;;;;;;;;;;23.78;58.26;97999.73;109854;1253;72650;-81
2023/06/08 02:53:35;;;;;;;;;;;;;;;23.79;58.10;98000.21;106636;1251;60300;-84
2023/06/08 02:56:03;;;;;;;;;;;;;;;23.81;58.15;98001.36;106126;1256;60432;-84
2023/06/08 02:58:33;;;;;;;;;;;;;;;23.81;58.08;98001.08;106275;1256;72882;-84
2023/06/08 03:01:00;;;;;;;;;;;;;;;23.82;57.97;98005.04;106215;1256;68057;-84
2023/06/08 03:03:59;;;;;;;;;;;;;;;23.82;58.08;98006.14;106209;1256;71636;-83
2023/06/08 03:06:36;;;;;;;;;;;;;;;23.83;57.90;98006.65;106146;1256;60495;-83
2023/06/08 03:09:05;;;;;;;;;;;;;;;23.83;57.98;98007.38;106196;1251;60668;-83
2023/06/08 03:11:34;;;;;;;;;;;;;;;23.81;57.88;98007.86;106407;1251;71512;-84
2023/06/08 03:14:03;;;;;;;;;;;;;;;23.81;57.94;98010.27;106255;1251;67755;-83
2023/06/08 03:16:31;;;;;;;;;;;;;;;23.80;57.98;98016.37;106196;1257;71929;-81
2023/06/08 03:18:59;;;;;;;;;;;;;;;23.80;57.95;98015.73;106311;1256;60435;-83
2023/06/08 03:21:28;;;;;;;;;;;;;;;23.79;57.93;98014.91;106160;1254;60457;-84
2023/06/08 03:23:56;;;;;;;;;;;;;;;23.79;58.00;98013.09;106197;1252;71992;-84
2023/06/08 03:26:23;;;;;;;;;;;;;;;23.79;57.92;98013.50;108865;1251;68843;-83
2023/06/08 03:28:50;;;;;;;;;;;;;;;23.79;57.92;98023.92;108549;1251;72991;-83
2023/06/08 03:31:20;;;;;;;;;;;;;;;23.78;58.00;98022.11;106606;1253;60300;-83
2023/06/08 03:33:48;;;;;;;;;;;;;;;23.79;58.02;98021.52;106185;1256;60936;-82
2023/06/08 03:36:17;;;;;;;;;;;;;;;23.79;58.02;98019.36;106159;1256;73806;-84
2023/06/08 03:38:45;;;;;;;;;;;;;;;23.78;57.97;98017.00;106208;1253;68863;-83
2023/06/08 03:41:14;;;;;;;;;;;;;;;23.78;57.81;98013.16;106097;1253;73529;-83
2023/06/08 03:43:42;;;;;;;;;;;;;;;23.79;57.81;98012.78;106136;1254;62360;-84
2023/06/08 03:46:09;;;;;;;;;;;;;;;23.78;57.97;98011.60;105901;1256;60511;-81
2023/06/08 03:48:37;;;;;;;;;;;;;;;23.78;57.92;98016.33;106025;1252;74424;-83
2023/06/08 03:51:05;;;;;;;;;;;;;;;23.77;57.89;98007.11;106140;1253;67831;-82
2023/06/08 03:53:33;;;;;;;;;;;;;;;23.77;57.86;98011.89;106107;1253;72881;-83
2023/06/08 03:56:04;;;;;;;;;;;;;;;23.77;57.87;98013.90;106151;1256;60792;-85
2023/06/08 03:58:34;;;;;;;;;;;;;;;23.76;57.88;98014.97;106092;1252;60548;-83
2023/06/08 04:01:03;;;;;;;;;;;;;;;23.76;58.03;98018.25;106109;1256;72701;-86
2023/06/08 04:03:31;;;;;;;;;;;;;;;23.76;58.01;98023.19;106168;1252;68865;-85
2023/06/08 04:06:00;;;;;;;;;;;;;;;23.75;57.99;98019.84;106234;1253;72399;-84
2023/06/08 04:08:32;;;;;;;;;;;;;;;23.75;57.92;98018.37;106285;1251;60548;-84
2023/06/08 04:11:00;;;;;;;;;;;;;;;23.74;58.00;98021.78;106213;1257;62043;-88
2023/06/08 04:13:27;;;;;;;;;;;;;;;23.74;57.88;98020.93;106213;1259;73809;-89
2023/06/08 04:15:55;;;;;;;;;;;;;;;23.73;58.05;98020.96;106306;1253;68957;-87
2023/06/08 04:18:22;;;;;;;;;;;;;;;23.74;58.02;98018.95;106209;1254;72073;-87
2023/06/08 04:20:50;;;;;;;;;;;;;;;23.74;57.95;98022.56;106375;1253;60444;-89
2023/06/08 04:23:18;;;;;;;;;;;;;;;23.74;57.89;98022.23;106071;1253;60476;-88
2023/06/08 04:25:46;;;;;;;;;;;;;;;23.73;57.89;98019.02;106253;1254;73931;-89
2023/06/08 04:28:14;;;;;;;;;;;;;;;23.73;57.94;98016.11;106234;1257;69577;-89
2023/06/08 04:30:44;;;;;;;;;;;;;;;23.73;57.96;98014.09;106245;1256;71757;-87
2023/06/08 04:33:11;;;;;;;;;;;;;;;23.73;57.87;98012.05;106042;1251;60464;-89
2023/06/08 04:35:40;;;;;;;;;;;;;;;23.73;57.94;98018.65;106185;1252;60444;-87
2023/06/08 04:38:14;;;;;;;;;;;;;;;23.72;57.92;98014.34;106143;1253;73104;-86
2023/06/08 04:40:48;;;;;;;;;;;;;;;23.72;58.04;98015.23;106475;1256;68765;-87
2023/06/08 04:43:17;;;;;;;;;;;;;;;23.72;57.87;98016.02;106219;1253;71461;-87
2023/06/08 04:45:45;;;;;;;;;;;;;;;23.72;58.00;98017.84;106182;1256;60471;-87
2023/06/08 04:48:13;;;;;;;;;;;;;;;23.73;57.92;98019.61;106117;1254;60524;-87
2023/06/08 04:50:45;;;;;;;;;;;;;;;23.72;57.83;98020.23;106237;1255;74548;-83
2023/06/08 04:53:12;;;;;;;;;;;;;;;23.72;57.94;98022.23;106090;1251;68892;-84
2023/06/08 04:55:44;;;;;;;;;;;;;;;23.72;57.98;98026.95;106158;1256;72004;-83
2023/06/08 04:58:12;;;;;;;;;;;;;;;23.72;57.97;98028.29;106172;1253;60329;-84
2023/06/08 05:00:39;;;;;;;;;;;;;;;23.72;57.99;98032.51;106912;1254;60424;-82
2023/06/08 05:03:11;;;;;;;;;;;;;;;23.72;58.04;98032.52;106379;1251;73626;-83
2023/06/08 05:05:39;;;;;;;;;;;;;;;23.71;57.95;98028.75;106268;1258;68482;-83
2023/06/08 05:08:07;;;;;;;;;;;;;;;23.72;57.83;98025.90;106626;1256;72111;-84
2023/06/08 05:10:34;;;;;;;;;;;;;;;23.72;58.02;98026.14;106435;1253;62239;-84
2023/06/08 05:13:05;;;;;;;;;;;;;;;23.69;58.26;98025.97;106575;1253;62175;-86
2023/06/08 05:15:32;;;;;;;;;;;;;;;23.61;58.66;98026.07;108595;1254;72582;-86
2023/06/08 05:17:59;;;;;;;;;;;;;;;23.52;59.27;98028.40;109404;1251;68436;-83
2023/06/08 05:20:29;;;;;;;;;;;;;;;23.42;59.70;98029.55;108295;1256;71754;-81
2023/06/08 05:22:58;;;;;;;;;;;;;;;23.33;60.18;98028.53;106761;1256;60517;-82
2023/06/08 05:25:34;;;;;;;;;;;;;;;23.23;60.65;98028.90;107067;1252;60657;-90
2023/06/08 05:28:03;;;;;;;;;;;;;;;23.17;61.04;98028.85;106864;1257;74020;-83
2023/06/08 05:30:30;;;;;;;;;;;;;;;23.09;61.44;98029.91;106398;1256;67602;-85
2023/06/08 05:33:00;;;;;;;;;;;;;;;23.02;61.98;98030.38;106729;1253;72694;-84
2023/06/08 05:35:27;;;;;;;;;;;;;;;22.97;62.06;98033.44;107014;1253;60547;-83
2023/06/08 05:37:55;;;;;;;;;;;;;;;22.93;62.30;98036.52;106881;1257;60286;-86
2023/06/08 05:40:23;;;;;;;;;;;;;;;22.87;62.64;98034.75;106936;1257;73572;-84
2023/06/08 05:42:50;;;;;;;;;;;;;;;22.83;62.89;98040.31;107044;1253;69015;-90
2023/06/08 05:45:18;;;;;;;;;;;;;;;22.81;63.21;98039.56;106776;1254;73474;-84
2023/06/08 05:47:54;;;;;;;;;;;;;;;22.80;63.26;98041.80;106557;1257;60462;-87
2023/06/08 05:50:23;;;;;;;;;;;;;;;22.81;63.36;98045.86;106478;1255;60566;-84
2023/06/08 05:52:50;;;;;;;;;;;;;;;22.80;63.68;98044.88;106855;1257;73944;-87
2023/06/08 05:55:20;;;;;;;;;;;;;;;22.79;63.94;98046.00;107132;1260;68385;-88
2023/06/08 05:57:48;;;;;;;;;;;;;;;22.77;64.25;98046.21;107230;1254;71673;-86
2023/06/08 06:00:18;;;;;;;;;;;;;;;22.74;64.49;98041.48;108817;1254;60756;-84
2023/06/08 06:02:49;;;;;;;;;;;;;;;22.73;64.66;98041.78;107629;1254;60588;-89
2023/06/08 06:05:20;;;;;;;;;;;;;;;22.72;64.79;98047.54;107042;1251;73990;-90
2023/06/08 06:07:51;;;;;;;;;;;;;;;22.71;64.87;98046.38;107571;1255;68488;-94
2023/06/08 06:10:35;;;;;;;;;;;;;;;22.70;64.94;98049.92;107267;1253;72488;-87
2023/06/08 06:13:09;;;;;;;;;;;;;;;22.70;64.99;98049.77;107014;1251;60438;-87
2023/06/08 06:15:44;;;;;;;;;;;;;;;22.71;64.93;98046.04;107230;1251;59965;-89
2023/06/08 06:18:15;;;;;;;;;;;;;;;22.70;65.11;98049.10;106852;1253;72737;-83
2023/06/08 06:20:48;;;;;;;;;;;;;;;22.68;65.34;98049.46;106699;1257;67763;-83
2023/06/08 06:23:17;;;;;;;;;;;;;;;22.67;65.38;98048.17;106576;1256;72759;-84
2023/06/08 06:25:50;;;;;;;;;;;;;;;22.66;65.43;98051.04;106688;1255;60340;-84
2023/06/08 06:28:18;;;;;;;;;;;;;;;22.65;65.49;98044.41;107027;1254;60546;-85
2023/06/08 06:30:53;;;;;;;;;;;;;;;22.64;65.53;98045.38;107023;1253;74095;-88
2023/06/08 06:34:39;;;;;;;;;;;;;;;22.65;65.67;98045.92;107194;1251;67076;-89
2023/06/08 06:41:39;;;;;;;;;;;;;;;22.62;66.09;98053.92;107518;1251;61785;-83
2023/06/08 06:44:09;;;;;;;;;;;;;;;22.62;66.15;98053.55;106706;1251;61566;-85
2023/06/08 06:46:37;;;;;;;;;;;;;;;22.62;66.34;98052.42;106887;1251;73084;-86
2023/06/08 06:49:04;;;;;;;;;;;;;;;22.64;66.30;98052.98;106586;1251;69345;-84
2023/06/08 06:51:36;;;;;;;;;;;;;;;22.64;66.72;98053.33;106517;1251;72821;-81
2023/06/08 06:54:05;;;;;;;;;;;;;;;22.63;67.01;98052.17;106493;1251;60395;-80
2023/06/08 06:56:34;;;;;;;;;;;;;;;22.62;67.21;98051.11;106997;1251;60425;-85
2023/06/08 06:59:03;;;;;;;;;;;;;;;22.62;67.54;98051.15;106778;1251;75574;-84
2023/06/08 07:06:18;;;;;;;;;;;;;;;22.64;67.75;98051.48;107122;1256;71426;-83
2023/06/08 07:08:47;;;;;;;;;;;;;;;22.66;67.96;98050.96;106439;1254;60458;-87
2023/06/08 07:11:24;;;;;;;;;;;;;;;22.69;67.89;98045.60;106549;1251;60875;-83
2023/06/08 07:13:51;;;;;;;;;;;;;;;22.70;67.68;98038.45;106692;1251;72058;-85
2023/06/08 07:16:25;;;;;;;;;;;;;;;22.72;67.84;98040.27;108471;1251;69336;-85
2023/06/08 07:18:55;;;;;;;;;;;;;;;22.72;67.61;98039.86;107801;1255;73763;-84
2023/06/08 07:21:30;;;;;;;;;;;;;;;22.73;67.60;98041.31;107962;1258;61634;-87
2023/06/08 07:24:08;;;;;;;;;;;;;;;22.73;67.70;98044.69;106719;1251;60432;-84
2023/06/08 07:26:59;;;;;;;;;;;;;;;22.73;67.74;98043.17;106819;1257;74915;-85
2023/06/08 07:29:27;;;;;;;;;;;;;;;22.74;67.70;98046.41;106504;1251;69309;-86
2023/06/08 07:32:02;;;;;;;;;;;;;;;22.74;67.99;98043.25;106569;1251;71191;-84
2023/06/08 07:34:39;;;;;;;;;;;;;;;22.74;67.91;98043.04;106676;1251;60594;-85
2023/06/08 07:37:09;;;;;;;;;;;;;;;22.74;67.92;98038.29;106982;1251;61429;-86
2023/06/08 07:39:43;;;;;;;;;;;;;;;22.74;68.07;98037.44;106572;1251;72938;-86
2023/06/08 07:42:11;;;;;;;;;;;;;;;22.74;68.24;98033.94;106623;1251;69387;-85
2023/06/08 07:44:42;;;;;;;;;;;;;;;22.73;68.32;98032.42;107054;1251;72272;-82
2023/06/08 07:47:12;;;;;;;;;;;;;;;22.73;68.58;98034.83;106709;1251;60718;-83
2023/06/08 07:49:45;;;;;;;;;;;;;;;22.73;68.79;98033.19;106592;1251;60277;-85
2023/06/08 07:52:28;;;;;;;;;;;;;;;22.73;68.84;98035.72;106537;1254;75467;-84
2023/06/08 07:54:56;;;;;;;;;;;;;;;22.73;69.07;98037.73;106414;1257;68127;-83
2023/06/08 07:57:36;;;;;;;;;;;;;;;22.74;69.38;98036.02;106584;1254;72536;-83
2023/06/08 08:00:09;;;;;;;;;;;;;;;22.75;69.45;98032.60;106947;1251;60440;-85
2023/06/08 08:02:43;;;;;;;;;;;;;;;22.76;69.49;98031.95;106599;1254;60479;-84
2023/06/08 08:05:11;;;;;;;;;;;;;;;22.76;69.73;98030.80;106680;1251;73725;-83
2023/06/08 08:07:40;;;;;;;;;;;;;;;22.76;69.88;98033.38;106839;1257;69290;-83
2023/06/08 08:10:11;;;;;;;;;;;;;;;22.76;69.94;98029.58;107133;1251;72342;-84
2023/06/08 08:12:39;;;;;;;;;;;;;;;22.76;69.99;98033.24;106883;1251;60547;-84
2023/06/08 08:15:07;;;;;;;;;;;;;;;22.76;70.18;98037.41;106554;1251;60992;-83
2023/06/08 08:17:41;;;;;;;;;;;;;;;22.75;70.49;98036.39;107156;1250;75583;-88
2023/06/08 08:20:13;;;;;;;;;;;;;;;22.76;70.59;98038.17;109607;1251;66775;-86
2023/06/08 08:22:41;;;;;;;;;;;;;;;22.76;70.79;98035.81;109125;1251;71477;-86
2023/06/08 08:25:09;;;;;;;;;;;;;;;22.77;70.91;98032.49;106883;1251;60396;-84
2023/06/08 08:27:43;;;;;;;;;;;;;;;22.79;71.06;98036.83;107044;1251;62145;-89
2023/06/08 08:30:19;;;;;;;;;;;;;;;22.81;71.17;98034.95;108444;1251;74134;-88
2023/06/08 08:32:55;;;;;;;;;;;;;;;22.83;71.24;98032.01;109097;1251;68153;-90
2023/06/08 08:35:30;;;;;;;;;;;;;;;22.85;71.48;98034.10;107619;1251;73115;-85
2023/06/08 08:37:57;;;;;;;;;;;;;;;22.87;71.74;98028.20;106845;1251;60447;-88
2023/06/08 08:40:27;;;;;;;;;;;;;;;22.88;71.77;98030.52;106688;1251;61135;-84
2023/06/08 08:43:25;;;;;;;;;;;;;;;22.90;71.86;98031.80;106661;1251;72542;-85
2023/06/08 08:45:53;;;;;;;;;;;;;;;22.90;72.03;98032.69;106658;1254;69112;-90
2023/06/08 08:48:26;;;;;;;;;;;;;;;22.91;72.00;98038.42;107194;1251;73637;-90
2023/06/08 08:50:57;;;;;;;;;;;;;;;22.93;71.99;98036.55;109487;1251;59454;-86
2023/06/08 08:53:27;;;;;;;;;;;;;;;22.94;72.04;98038.59;109568;1251;59466;-87
2023/06/08 08:56:03;;;;;;;;;;;;;;;22.96;72.34;98041.05;109569;1251;71942;-87
2023/06/08 08:58:40;;;;;;;;;;;;;;;22.97;71.96;98038.21;109600;1254;67650;-84
2023/06/08 09:01:24;;;;;;;;;;;;;;;22.99;71.72;98044.90;109590;1251;71285;-84
2023/06/08 09:03:56;;;;;;;;;;;;;;;23.02;71.21;98046.13;109115;1251;59665;-83
2023/06/08 09:06:29;;;;;;;;;;;;;;;23.05;70.97;98044.46;107642;1251;60426;-84
2023/06/08 09:08:56;;;;;;;;;;;;;;;23.05;70.78;98045.23;106915;1251;73356;-88
2023/06/08 09:11:25;;;;;;;;;;;;;;;23.05;70.85;98041.23;106639;1251;70595;-87
2023/06/08 09:14:08;;;;;;;;;;;;;;;23.04;70.82;98039.35;106572;1256;73267;-83
2023/06/08 09:16:41;;;;;;;;;;;;;;;23.04;70.88;98037.88;107710;1251;60653;-86
2023/06/08 09:19:09;;;;;;;;;;;;;;;23.03;71.05;98041.41;107011;1251;60902;-87
2023/06/08 09:21:37;;;;;;;;;;;;;;;23.04;70.90;98040.61;107531;1254;73969;-91
2023/06/08 09:24:14;;;;;;;;;;;;;;;23.04;71.38;98038.98;107059;1251;67848;-90
2023/06/08 09:26:46;;;;;;;;;;;;;;;23.02;71.50;98036.05;107402;1251;72934;-87
2023/06/08 09:29:34;;;;;;;;;;;;;;;23.01;71.65;98034.02;107411;1253;60425;-88
2023/06/08 09:32:10;;;;;;;;;;;;;;;23.00;72.02;98035.23;106933;1251;60456;-89
2023/06/08 09:34:55;;;;;;;;;;;;;;;23.01;72.43;98036.04;106918;1253;74064;-88
2023/06/08 09:37:26;;;;;;;;;;;;;;;23.01;72.79;98035.63;107069;1251;69398;-86
2023/06/08 09:39:54;;;;;;;;;;;;;;;23.00;73.04;98031.02;106410;1254;71664;-88
2023/06/08 09:42:24;;;;;;;;;;;;;;;23.00;73.26;98029.96;106384;1260;60411;-87
2023/06/08 09:45:06;;;;;;;;;;;;;;;22.99;73.67;98028.02;106351;1254;60540;-87
2023/06/08 09:47:33;;;;;;;;;;;;;;;22.99;73.93;98025.73;106257;1255;73616;-85
2023/06/08 09:50:02;;;;;;;;;;;;;;;22.99;74.02;98025.39;106341;1257;67655;-84
2023/06/08 09:52:35;;;;;;;;;;;;;;;22.99;74.31;98023.37;106495;1251;74372;-85
2023/06/08 09:55:07;;;;;;;;;;;;;;;22.98;74.49;98016.16;106388;1251;60510;-85
2023/06/08 09:57:35;;;;;;;;;;;;;;;22.99;74.52;98014.98;106350;1251;60817;-86
2023/06/08 10:00:17;;;;;;;;;;;;;;;23.00;74.67;98014.11;106502;1257;75882;-85
2023/06/08 10:02:54;;;;;;;;;;;;;;;23.00;74.73;98008.98;106720;1251;69829;-86
2023/06/08 10:05:34;;;;;;;;;;;;;;;23.00;74.76;98006.57;107163;1250;71332;-86
2023/06/08 10:08:12;;;;;;;;;;;;;;;23.02;74.70;98006.39;106791;1251;60949;-87
2023/06/08 10:11:05;;;;;;;;;;;;;;;23.03;74.96;98009.42;106459;1254;60363;-87
2023/06/08 10:13:36;;;;;;;;;;;;;;;23.04;74.83;98007.68;106151;1254;72543;-86
2023/06/08 10:16:26;;;;;;;;;;;;;;;23.06;75.06;98008.02;106117;1257;67370;-88
2023/06/08 10:19:25;;;;;;;;;;;;;;;23.07;75.47;98007.13;106244;1260;72014;-86
2023/06/08 10:22:18;;;;;;;;;;;;;;;23.10;75.50;98004.85;106275;1264;60491;-89
